Time;durP1;ratioP1;P1;durP2;ratioP2;P2;SDS_P1;SDS_P2;PMS_P1;PMS_P2;Temp;Humidity;BMP_temperature;BMP_pressure;BME280_temperature;BME280_humidity;BME280_pressure;Samples;Min_cycle;Max_cycle;Signal;HPM_P1;HPM_P2
2022/07/23 00:01:27;;;;;;;6.40;5.80;;;23.50;99.90;;;;;;5060131;28;20792;-88
2022/07/23 00:03:54;;;;;;;6.10;5.50;;;23.50;99.90;;;;;;5063873;28;20522;-90
2022/07/23 00:06:22;;;;;;;5.10;4.70;;;23.50;99.90;;;;;;5058879;28;20545;-89
2022/07/23 00:08:50;;;;;;;6.43;5.83;;;23.50;99.90;;;;;;5060866;28;20456;-88
2022/07/23 00:11:17;;;;;;;6.27;5.67;;;23.60;99.90;;;;;;5047536;28;20453;-89
2022/07/23 00:13:44;;;;;;;6.37;5.87;;;23.70;99.90;;;;;;5062018;28;21115;-89
2022/07/23 00:16:11;;;;;;;5.23;4.70;;;23.80;99.90;;;;;;5056420;28;20480;-88
2022/07/23 00:18:39;;;;;;;4.40;4.00;;;23.80;99.90;;;;;;5057173;28;20472;-89
2022/07/23 00:21:06;;;;;;;8.13;5.43;;;23.80;99.90;;;;;;5051104;28;20468;-89
2022/07/23 00:23:33;;;;;;;5.33;4.93;;;23.80;99.90;;;;;;5056586;28;20517;-88
2022/07/23 00:26:00;;;;;;;5.70;5.27;;;23.80;99.90;;;;;;5054639;28;20954;-89
2022/07/23 00:28:27;;;;;;;5.47;4.97;;;23.70;99.90;;;;;;5056954;28;20520;-89
2022/07/23 00:30:54;;;;;;;5.60;5.07;;;23.70;99.90;;;;;;5057825;28;20521;-87
2022/07/23 00:33:21;;;;;;;5.93;5.13;;;23.60;99.90;;;;;;5057864;28;20912;-89
2022/07/23 00:35:49;;;;;;;4.80;4.13;;;23.20;99.90;;;;;;5056185;28;20985;-90
2022/07/23 00:38:16;;;;;;;5.20;4.70;;;23.00;99.90;;;;;;5061843;28;20455;-89
2022/07/23 00:40:43;;;;;;;5.30;4.50;;;22.80;99.90;;;;;;5055388;28;20884;-89
2022/07/23 00:43:10;;;;;;;5.93;5.43;;;22.70;99.90;;;;;;5058350;28;20453;-91
2022/07/23 00:45:37;;;;;;;5.80;5.30;;;22.60;99.90;;;;;;5055540;28;20541;-92
2022/07/23 00:48:04;;;;;;;4.80;4.40;;;22.50;99.90;;;;;;5059420;28;21022;-89
2022/07/23 00:50:31;;;;;;;5.03;4.53;;;22.30;99.90;;;;;;5051755;28;20476;-91
2022/07/23 00:53:00;;;;;;;7.50;5.37;;;22.30;99.90;;;;;;5060020;28;20467;-88
2022/07/23 00:55:27;;;;;;;5.10;4.60;;;22.30;99.90;;;;;;5077983;28;20459;-89
2022/07/23 00:57:55;;;;;;;6.20;5.60;;;22.30;99.90;;;;;;5079681;28;20474;-90
2022/07/23 01:00:23;;;;;;;4.23;3.90;;;22.40;99.90;;;;;;5084647;28;20460;-89
2022/07/23 01:02:50;;;;;;;4.60;4.20;;;22.40;99.90;;;;;;5073966;28;20845;-89
2022/07/23 01:05:21;;;;;;;7.60;5.50;;;22.30;99.90;;;;;;5057896;28;20453;-89
2022/07/23 01:07:48;;;;;;;7.40;6.37;;;22.30;99.90;;;;;;5065903;28;20562;-88
2022/07/23 01:10:32;;;;;;;6.53;5.90;;;22.30;99.90;;;;;;5058978;28;20463;-91
2022/07/23 01:13:01;;;;;;;11.70;6.93;;;22.30;99.90;;;;;;5058262;28;22106;-88
2022/07/23 01:15:28;;;;;;;7.93;6.07;;;22.30;99.90;;;;;;5060572;28;20525;-90
2022/07/23 01:17:56;;;;;;;9.43;7.83;;;22.30;99.90;;;;;;5065446;28;20439;-88
2022/07/23 01:20:23;;;;;;;6.47;5.77;;;22.40;99.90;;;;;;5066707;28;20475;-90
2022/07/23 01:22:52;;;;;;;9.70;6.00;;;22.30;99.90;;;;;;5064509;28;20983;-89
2022/07/23 01:25:20;;;;;;;7.53;6.73;;;22.30;99.90;;;;;;5063651;28;20440;-88
2022/07/23 01:27:47;;;;;;;7.60;4.93;;;22.30;99.90;;;;;;5056760;28;20855;-88
2022/07/23 01:30:14;;;;;;;6.03;5.47;;;22.20;99.90;;;;;;5060174;28;20879;-89
2022/07/23 01:32:41;;;;;;;6.50;5.87;;;22.00;99.90;;;;;;5076135;28;20448;-87
2022/07/23 01:35:09;;;;;;;8.43;6.07;;;22.00;99.90;;;;;;5067591;28;20490;-89
2022/07/23 01:37:36;;;;;;;6.90;5.13;;;21.90;99.90;;;;;;5071424;28;20514;-88
2022/07/23 01:40:06;;;;;;;7.80;6.57;;;21.80;99.90;;;;;;5062515;28;20538;-88
2022/07/23 01:42:33;;;;;;;8.00;7.13;;;21.80;99.90;;;;;;5060091;28;20889;-89
2022/07/23 01:45:00;;;;;;;9.30;7.40;;;21.70;99.90;;;;;;5057269;28;20529;-90
2022/07/23 01:47:28;;;;;;;7.60;6.90;;;21.80;99.90;;;;;;5058182;28;20461;-89
2022/07/23 01:49:55;;;;;;;7.03;6.33;;;21.80;99.90;;;;;;5056660;28;21011;-88
2022/07/23 01:52:22;;;;;;;7.87;7.03;;;21.70;99.90;;;;;;5053377;28;20456;-89
2022/07/23 01:54:49;;;;;;;7.67;6.83;;;21.70;99.90;;;;;;5058026;28;20488;-91
2022/07/23 01:57:17;;;;;;;6.33;5.73;;;21.70;99.90;;;;;;5059663;28;20509;-91
2022/07/23 01:59:44;;;;;;;6.73;6.13;;;21.80;99.90;;;;;;5055397;28;20495;-90
2022/07/23 02:02:11;;;;;;;6.37;5.70;;;21.80;99.90;;;;;;5062480;28;20996;-89
2022/07/23 02:04:38;;;;;;;7.10;5.20;;;21.80;99.90;;;;;;5057512;28;20862;-89
2022/07/23 02:07:06;;;;;;;6.20;5.60;;;21.80;99.90;;;;;;5056176;28;20525;-88
2022/07/23 02:09:34;;;;;;;8.63;6.00;;;21.70;99.90;;;;;;5056596;28;20471;-88
2022/07/23 02:12:01;;;;;;;9.87;4.97;;;21.70;99.90;;;;;;5056992;28;20536;-90
2022/07/23 02:14:30;;;;;;;4.50;4.10;;;21.70;99.90;;;;;;5057950;28;20867;-93
2022/07/23 02:16:57;;;;;;;5.20;4.70;;;21.60;99.90;;;;;;5056916;28;20534;-90
2022/07/23 02:19:24;;;;;;;8.20;6.20;;;21.60;99.90;;;;;;5062042;28;20457;-88
2022/07/23 02:21:51;;;;;;;6.27;4.80;;;21.50;99.90;;;;;;5062581;28;21012;-89
2022/07/23 02:24:18;;;;;;;5.90;5.30;;;21.50;99.90;;;;;;5051491;28;20460;-89
2022/07/23 02:26:45;;;;;;;5.90;5.40;;;21.60;99.90;;;;;;5052009;28;20453;-88
2022/07/23 02:29:12;;;;;;;6.23;5.60;;;21.60;99.90;;;;;;5055490;28;20517;-89
2022/07/23 02:31:41;;;;;;;5.87;4.93;;;21.60;99.90;;;;;;5063502;28;20447;-89
2022/07/23 02:34:11;;;;;;;3.33;3.07;;;21.50;99.90;;;;;;5051219;28;20461;-88
2022/07/23 02:36:38;;;;;;;4.33;4.00;;;21.50;99.90;;;;;;5061193;28;20578;-88
2022/07/23 02:39:05;;;;;;;4.50;4.10;;;21.50;99.90;;;;;;5065446;28;20463;-88
2022/07/23 02:41:32;;;;;;;4.43;3.93;;;21.40;99.90;;;;;;5054849;28;21135;-88
2022/07/23 02:43:59;;;;;;;4.30;4.00;;;21.50;99.90;;;;;;5064935;28;20562;-89
2022/07/23 02:46:26;;;;;;;3.57;3.27;;;21.60;99.90;;;;;;5057595;28;20506;-92
2022/07/23 02:48:54;;;;;;;4.00;3.60;;;21.50;99.90;;;;;;5054198;28;20514;-88
2022/07/23 02:51:21;;;;;;;5.13;3.43;;;21.50;99.90;;;;;;5052521;28;21169;-90
2022/07/23 02:53:48;;;;;;;3.87;3.50;;;21.50;99.90;;;;;;5065424;28;20467;-88
2022/07/23 02:56:15;;;;;;;4.47;4.17;;;21.40;99.90;;;;;;5052067;28;20472;-88
2022/07/23 02:58:42;;;;;;;4.93;3.63;;;21.30;99.90;;;;;;5052206;28;21036;-89
2022/07/23 03:01:10;;;;;;;4.60;4.20;;;21.20;99.90;;;;;;5064756;28;21178;-90
2022/07/23 03:03:37;;;;;;;5.93;4.67;;;21.10;99.90;;;;;;5066014;28;20818;-89
2022/07/23 03:06:05;;;;;;;4.10;3.40;;;21.20;99.90;;;;;;5059978;28;20452;-88
2022/07/23 03:08:32;;;;;;;5.93;4.30;;;21.20;99.90;;;;;;5062322;28;20460;-89
2022/07/23 03:10:59;;;;;;;3.30;2.90;;;21.10;99.90;;;;;;5055720;28;20500;-88
2022/07/23 03:13:27;;;;;;;3.03;2.73;;;21.10;99.90;;;;;;5053281;28;21055;-90
2022/07/23 03:15:54;;;;;;;5.70;3.80;;;21.10;99.90;;;;;;5057697;28;20488;-88
2022/07/23 03:18:21;;;;;;;2.43;2.20;;;21.10;99.90;;;;;;5055962;28;20461;-88
2022/07/23 03:20:48;;;;;;;3.20;2.90;;;21.00;99.90;;;;;;5056620;28;20480;-89
2022/07/23 03:23:17;;;;;;;3.07;2.77;;;20.90;99.90;;;;;;5055818;28;20539;-91
2022/07/23 03:25:44;;;;;;;2.93;2.73;;;21.00;99.90;;;;;;5063122;28;20471;-90
2022/07/23 03:28:11;;;;;;;3.20;2.37;;;21.00;99.90;;;;;;5065940;28;20514;-88
2022/07/23 03:30:38;;;;;;;3.07;2.17;;;20.90;99.90;;;;;;5065339;28;20460;-89
2022/07/23 03:33:05;;;;;;;3.37;2.57;;;20.90;99.90;;;;;;5063965;28;20541;-90
2022/07/23 03:35:32;;;;;;;3.47;1.93;;;20.80;99.90;;;;;;5064921;28;20456;-89
2022/07/23 03:37:59;;;;;;;1.87;1.67;;;20.80;99.90;;;;;;5055806;28;20456;-89
2022/07/23 03:40:27;;;;;;;2.43;2.10;;;20.80;99.90;;;;;;5052484;28;20488;-89
2022/07/23 03:42:54;;;;;;;2.43;2.23;;;20.80;99.90;;;;;;5059129;28;20459;-91
2022/07/23 03:45:22;;;;;;;2.00;1.57;;;20.90;99.90;;;;;;5062545;28;20456;-89
2022/07/23 03:47:49;;;;;;;1.97;1.87;;;20.90;99.90;;;;;;5062913;28;20920;-88
2022/07/23 03:50:16;;;;;;;1.73;1.50;;;21.00;99.90;;;;;;5052805;28;20472;-91
2022/07/23 03:52:43;;;;;;;1.70;1.60;;;21.00;99.90;;;;;;5055082;28;20550;-89
2022/07/23 03:55:10;;;;;;;2.83;1.37;;;21.00;99.90;;;;;;5058359;28;20469;-88
2022/07/23 03:57:39;;;;;;;2.73;1.80;;;20.90;99.90;;;;;;5051137;28;20464;-88
2022/07/23 04:00:09;;;;;;;2.40;2.20;;;20.80;99.90;;;;;;5056620;28;20557;-89
2022/07/23 04:02:36;;;;;;;1.83;1.73;;;20.70;99.90;;;;;;5048655;28;20452;-89
2022/07/23 04:05:03;;;;;;;2.73;2.37;;;20.70;99.90;;;;;;5081541;28;20459;-89
2022/07/23 04:07:30;;;;;;;1.93;1.77;;;20.60;99.90;;;;;;5084167;28;20528;-90
2022/07/23 04:09:57;;;;;;;7.60;2.07;;;20.50;99.90;;;;;;5085191;28;20465;-91
2022/07/23 04:12:24;;;;;;;3.27;2.97;;;20.50;99.90;;;;;;5076894;28;20451;-89
2022/07/23 04:14:52;;;;;;;3.40;2.37;;;20.50;99.90;;;;;;5069180;28;20465;-90
2022/07/23 04:17:19;;;;;;;3.10;2.57;;;20.40;99.90;;;;;;5058494;28;20487;-89
2022/07/23 04:19:46;;;;;;;5.93;2.30;;;20.40;99.90;;;;;;5057253;28;20513;-89
2022/07/23 04:22:14;;;;;;;2.00;1.90;;;20.40;99.90;;;;;;5061128;28;20862;-88
2022/07/23 04:24:40;;;;;;;2.00;1.90;;;20.40;99.90;;;;;;5060385;28;20473;-88
2022/07/23 04:27:07;;;;;;;2.10;1.87;;;20.40;99.90;;;;;;5053484;28;20558;-88
2022/07/23 04:29:34;;;;;;;2.70;1.70;;;20.40;99.90;;;;;;5057567;28;20462;-89
2022/07/23 04:32:03;;;;;;;1.90;1.77;;;20.50;99.90;;;;;;5064480;28;20942;-88
2022/07/23 04:34:30;;;;;;;1.97;1.60;;;20.50;99.90;;;;;;5056715;28;20487;-88
2022/07/23 04:36:57;;;;;;;1.73;1.53;;;20.50;99.90;;;;;;5048869;28;20463;-88
2022/07/23 04:39:24;;;;;;;3.10;2.20;;;20.60;99.90;;;;;;5053161;28;21221;-88
2022/07/23 04:41:51;;;;;;;2.10;1.53;;;20.60;99.90;;;;;;5058177;28;20530;-88
2022/07/23 04:44:18;;;;;;;2.47;1.90;;;20.60;99.90;;;;;;5054640;28;20514;-88
2022/07/23 04:46:45;;;;;;;2.87;2.50;;;20.70;99.90;;;;;;5054863;28;20463;-87
2022/07/23 04:49:13;;;;;;;1.57;1.47;;;20.70;99.90;;;;;;5053013;28;20519;-89
2022/07/23 04:51:40;;;;;;;2.23;1.80;;;20.90;99.90;;;;;;5059392;28;21138;-89
2022/07/23 04:54:07;;;;;;;1.77;1.67;;;21.00;99.90;;;;;;5058437;28;21130;-87
2022/07/23 04:56:34;;;;;;;3.77;1.47;;;21.00;99.90;;;;;;5065567;28;21050;-90
2022/07/23 04:59:01;;;;;;;1.47;1.10;;;21.10;99.90;;;;;;5064844;28;20459;-88
2022/07/23 05:01:28;;;;;;;2.10;1.40;;;21.30;99.90;;;;;;5061097;28;20532;-88
2022/07/23 05:03:55;;;;;;;1.53;1.03;;;21.60;99.90;;;;;;5077127;28;20456;-87
2022/07/23 05:06:24;;;;;;;1.40;1.30;;;21.90;99.90;;;;;;5079890;28;20463;-87
2022/07/23 05:08:51;;;;;;;7.43;2.47;;;22.00;99.90;;;;;;5073404;28;20461;-88
2022/07/23 05:11:18;;;;;;;1.60;1.30;;;22.10;99.90;;;;;;5063498;28;20467;-89
2022/07/23 05:13:45;;;;;;;4.30;2.60;;;22.10;99.90;;;;;;5064212;28;20453;-89
2022/07/23 05:16:12;;;;;;;1.00;0.90;;;22.20;99.90;;;;;;5066479;28;20471;-90
2022/07/23 05:18:39;;;;;;;3.37;1.57;;;22.30;99.90;;;;;;5066039;28;20505;-89
2022/07/23 05:21:06;;;;;;;1.33;1.03;;;22.30;99.90;;;;;;5059329;28;20488;-90
2022/07/23 05:23:34;;;;;;;1.73;1.60;;;22.20;99.90;;;;;;5055281;28;21174;-88
2022/07/23 05:26:01;;;;;;;1.67;1.50;;;22.20;99.90;;;;;;5056776;28;20886;-89
2022/07/23 05:28:28;;;;;;;1.83;1.20;;;22.40;99.90;;;;;;5062764;28;20459;-88
2022/07/23 05:30:55;;;;;;;1.80;1.70;;;22.40;99.90;;;;;;5065477;28;20439;-88
2022/07/23 05:33:22;;;;;;;1.60;1.43;;;22.50;99.90;;;;;;5051604;28;20455;-88
2022/07/23 05:35:49;;;;;;;3.57;2.20;;;22.60;99.90;;;;;;5066003;28;20537;-89
2022/07/23 05:38:16;;;;;;;1.63;1.53;;;22.80;99.90;;;;;;5063518;28;20986;-89
2022/07/23 05:40:45;;;;;;;1.80;1.40;;;23.10;99.90;;;;;;5054133;28;20484;-88
2022/07/23 05:43:12;;;;;;;3.37;1.53;;;23.40;99.90;;;;;;5062153;28;20870;-89
2022/07/23 05:45:39;;;;;;;2.80;1.20;;;23.60;99.90;;;;;;5063239;28;20459;-89
2022/07/23 05:48:06;;;;;;;2.70;2.40;;;23.80;99.90;;;;;;5054810;28;20529;-88
2022/07/23 05:50:33;;;;;;;1.50;1.37;;;23.90;99.80;;;;;;5062420;28;20460;-92
2022/07/23 05:53:00;;;;;;;2.93;1.67;;;24.30;99.70;;;;;;5061208;28;20460;-89
2022/07/23 05:55:28;;;;;;;1.30;1.20;;;24.50;98.70;;;;;;5063184;28;20467;-89
2022/07/23 05:57:58;;;;;;;0.90;0.83;;;24.70;97.90;;;;;;5064260;28;20625;-89
2022/07/23 06:00:25;;;;;;;1.30;1.20;;;24.80;97.70;;;;;;5060836;28;20503;-89
2022/07/23 06:02:53;;;;;;;6.60;1.30;;;24.90;98.50;;;;;;5064018;28;20517;-88
2022/07/23 06:05:20;;;;;;;1.30;1.20;;;24.80;96.70;;;;;;5066077;28;20742;-91
2022/07/23 06:07:47;;;;;;;1.53;1.00;;;24.90;96.30;;;;;;5056316;28;20538;-88
2022/07/23 06:10:14;;;;;;;2.30;1.53;;;24.90;95.40;;;;;;5062743;28;20509;-89
2022/07/23 06:12:41;;;;;;;1.50;1.40;;;24.90;95.40;;;;;;5059234;28;20499;-88
2022/07/23 06:15:11;;;;;;;1.87;1.13;;;24.80;95.10;;;;;;5057972;28;20466;-90
2022/07/23 06:17:39;;;;;;;1.50;1.40;;;25.00;95.00;;;;;;5061053;28;20578;-87
2022/07/23 06:20:08;;;;;;;1.53;1.30;;;25.30;93.60;;;;;;5057046;28;21101;-89
2022/07/23 06:22:35;;;;;;;1.50;1.40;;;25.40;93.40;;;;;;5062921;28;20495;-89
2022/07/23 06:25:02;;;;;;;1.67;1.57;;;25.50;93.30;;;;;;5063835;28;20497;-89
2022/07/23 06:27:29;;;;;;;1.63;1.50;;;25.60;92.30;;;;;;5057989;28;20476;-88
2022/07/23 06:29:56;;;;;;;1.00;1.00;;;25.40;92.80;;;;;;5060557;28;20464;-90
2022/07/23 06:32:25;;;;;;;1.17;1.07;;;25.30;92.80;;;;;;5057007;28;20473;-90
2022/07/23 06:34:52;;;;;;;2.50;1.23;;;25.10;93.10;;;;;;5062031;28;20456;-88
2022/07/23 06:37:18;;;;;;;1.53;1.43;;;25.00;93.70;;;;;;5061381;28;20459;-88
2022/07/23 06:39:45;;;;;;;1.83;1.00;;;25.10;92.70;;;;;;5061926;28;20455;-89
2022/07/23 06:42:13;;;;;;;2.30;1.53;;;24.90;91.90;;;;;;5054507;28;20519;-88
2022/07/23 06:44:40;;;;;;;0.93;0.83;;;24.70;92.30;;;;;;5058163;28;20451;-90
2022/07/23 06:47:07;;;;;;;1.10;1.00;;;24.50;92.10;;;;;;5055673;28;20483;-89
2022/07/23 06:49:35;;;;;;;1.43;1.33;;;24.40;92.60;;;;;;5057230;28;21276;-87
2022/07/23 06:52:02;;;;;;;1.73;1.13;;;24.40;93.00;;;;;;5058914;28;20883;-90
2022/07/23 06:54:29;;;;;;;1.37;1.17;;;24.40;93.20;;;;;;5064313;28;20451;-88
2022/07/23 06:56:56;;;;;;;2.40;1.20;;;24.20;92.80;;;;;;5061503;28;20502;-89
2022/07/23 06:59:23;;;;;;;1.20;1.10;;;24.20;92.90;;;;;;5068163;28;20455;-89
2022/07/23 07:01:50;;;;;;;1.17;1.07;;;24.30;93.00;;;;;;5070273;28;20505;-88
2022/07/23 07:04:17;;;;;;;2.20;1.50;;;24.30;93.30;;;;;;5077921;28;20499;-89
2022/07/23 07:06:46;;;;;;;3.37;1.77;;;24.30;93.60;;;;;;5089870;28;20497;-89
2022/07/23 07:09:13;;;;;;;1.10;1.00;;;24.50;93.50;;;;;;5086712;28;20992;-88
2022/07/23 07:11:40;;;;;;;2.57;1.50;;;24.80;93.40;;;;;;5074211;28;20451;-89
2022/07/23 07:14:07;;;;;;;1.47;0.97;;;25.00;93.00;;;;;;5060861;28;20467;-90
2022/07/23 07:16:34;;;;;;;1.73;1.10;;;25.20;92.00;;;;;;5066034;28;21044;-91
2022/07/23 07:19:01;;;;;;;2.90;1.23;;;25.60;92.50;;;;;;5064291;28;20506;-92
2022/07/23 07:21:28;;;;;;;1.60;1.17;;;25.90;91.30;;;;;;5064820;28;20489;-89
2022/07/23 07:23:56;;;;;;;1.93;1.10;;;26.50;91.00;;;;;;5060959;28;20460;-89
2022/07/23 07:26:27;;;;;;;1.80;1.70;;;26.60;90.00;;;;;;5062148;28;20463;-93
2022/07/23 07:28:56;;;;;;;1.47;1.10;;;26.80;90.40;;;;;;5061242;28;20451;-90
2022/07/23 07:31:36;;;;;;;1.10;1.00;;;27.20;87.80;;;;;;5066588;28;20578;-90
2022/07/23 07:34:03;;;;;;;1.27;1.17;;;27.60;86.30;;;;;;5064881;28;20828;-90
2022/07/23 07:36:30;;;;;;;1.60;1.10;;;28.00;86.30;;;;;;5059061;28;21028;-91
2022/07/23 07:38:59;;;;;;;1.07;1.00;;;28.10;82.30;;;;;;5054739;28;20463;-88
2022/07/23 07:41:26;;;;;;;1.20;1.10;;;27.90;80.40;;;;;;5057520;28;20479;-88
2022/07/23 07:43:53;;;;;;;2.13;0.70;;;28.40;80.90;;;;;;5061320;28;20943;-88
2022/07/23 07:46:20;;;;;;;1.07;0.97;;;28.50;75.80;;;;;;5054077;28;20493;-87
2022/07/23 07:48:47;;;;;;;1.40;1.30;;;28.70;75.40;;;;;;5060838;28;20452;-88
2022/07/23 07:51:15;;;;;;;2.20;1.23;;;28.30;77.60;;;;;;5061411;28;20471;-88
2022/07/23 07:53:42;;;;;;;1.20;1.00;;;28.20;77.90;;;;;;5060995;28;20459;-91
2022/07/23 07:56:10;;;;;;;1.17;1.03;;;27.90;77.30;;;;;;5058866;28;20464;-88
2022/07/23 07:58:37;;;;;;;0.77;0.77;;;27.60;79.50;;;;;;5054908;28;20453;-94
2022/07/23 08:01:05;;;;;;;1.03;1.03;;;27.50;79.40;;;;;;5068549;28;20444;-89
2022/07/23 08:03:32;;;;;;;1.83;1.23;;;27.40;82.90;;;;;;5057727;28;20463;-89
2022/07/23 08:05:59;;;;;;;1.57;1.27;;;27.20;82.30;;;;;;5056522;28;21032;-89
2022/07/23 08:08:26;;;;;;;1.20;1.10;;;27.20;83.00;;;;;;5062242;28;21135;-89
2022/07/23 08:10:53;;;;;;;1.33;1.10;;;27.50;83.10;;;;;;5063841;28;20464;-91
2022/07/23 08:13:21;;;;;;;1.73;1.10;;;27.30;80.10;;;;;;5057534;28;20517;-89
2022/07/23 08:15:49;;;;;;;1.67;1.10;;;27.40;79.70;;;;;;5054218;28;20480;-92
2022/07/23 08:18:15;;;;;;;1.10;1.00;;;27.60;78.60;;;;;;5053830;28;20463;-88
2022/07/23 08:20:42;;;;;;;1.10;1.10;;;27.70;76.00;;;;;;5051280;28;20575;-87
2022/07/23 08:23:10;;;;;;;1.23;1.00;;;27.70;77.20;;;;;;5063182;28;20487;-87
2022/07/23 08:25:38;;;;;;;0.97;0.97;;;27.60;75.80;;;;;;5057756;28;20469;-87
2022/07/23 08:28:07;;;;;;;1.00;0.77;;;27.50;76.50;;;;;;5061530;28;20455;-86
2022/07/23 08:30:37;;;;;;;1.23;1.13;;;27.40;75.00;;;;;;5065857;28;21009;-86
2022/07/23 08:33:07;;;;;;;2.13;1.23;;;27.20;74.30;;;;;;5059027;28;20473;-88
2022/07/23 08:35:36;;;;;;;1.17;1.00;;;27.20;73.00;;;;;;5062831;28;20448;-86
2022/07/23 08:38:05;;;;;;;0.90;0.80;;;27.40;73.10;;;;;;5057487;28;20474;-85
2022/07/23 08:40:34;;;;;;;0.80;0.77;;;27.20;75.30;;;;;;5057897;28;20464;-87
2022/07/23 08:43:04;;;;;;;0.80;0.80;;;27.20;72.70;;;;;;5057485;28;20497;-89
2022/07/23 08:45:31;;;;;;;1.23;0.80;;;27.20;72.80;;;;;;5059652;28;20996;-90
2022/07/23 08:47:59;;;;;;;0.97;0.80;;;27.00;73.50;;;;;;5059012;28;20523;-90
2022/07/23 08:50:27;;;;;;;1.13;1.00;;;27.30;75.70;;;;;;5059488;28;20495;-90
2022/07/23 08:52:56;;;;;;;1.30;1.20;;;27.70;76.50;;;;;;5060759;28;20529;-91
2022/07/23 08:55:23;;;;;;;1.77;0.90;;;27.80;70.60;;;;;;5059218;28;20448;-91
2022/07/23 08:57:53;;;;;;;1.90;1.40;;;28.00;72.60;;;;;;5065266;28;20458;-91
2022/07/23 09:00:21;;;;;;;1.00;0.90;;;27.80;72.10;;;;;;5061312;28;20464;-91
2022/07/23 09:02:49;;;;;;;3.03;2.07;;;27.80;75.20;;;;;;5060425;28;20488;-91
2022/07/23 09:05:20;;;;;;;1.20;1.07;;;27.70;73.10;;;;;;5056136;28;21218;-90
2022/07/23 09:08:09;;;;;;;1.70;1.30;;;27.90;72.50;;;;;;5057047;28;20991;-91
2022/07/23 09:10:45;;;;;;;1.37;1.10;;;27.80;70.60;;;;;;5059904;28;20465;-91
2022/07/23 09:13:28;;;;;;;1.23;1.13;;;27.90;71.30;;;;;;5061761;28;20462;-90
2022/07/23 09:15:58;;;;;;;1.20;1.10;;;28.00;71.70;;;;;;5061807;28;20517;-90
2022/07/23 09:18:33;;;;;;;7.00;1.10;;;28.00;71.20;;;;;;5066559;28;20493;-89
2022/07/23 09:21:10;;;;;;;1.23;1.13;;;27.90;70.50;;;;;;5066700;28;20513;-90
2022/07/23 09:23:42;;;;;;;4.03;1.50;;;28.00;74.40;;;;;;5057119;28;20511;-91
2022/07/23 09:26:26;;;;;;;1.17;1.03;;;28.20;70.50;;;;;;5051704;28;20574;-89
2022/07/23 09:28:56;;;;;;;1.10;1.00;;;28.20;72.40;;;;;;5061379;28;20517;-90
2022/07/23 09:31:24;;;;;;;2.80;1.23;;;28.30;68.40;;;;;;5056753;28;20543;-91
2022/07/23 09:33:52;;;;;;;1.30;1.20;;;28.50;70.40;;;;;;5065268;28;20959;-91
2022/07/23 09:36:29;;;;;;;2.83;1.23;;;28.30;69.00;;;;;;5063461;28;20651;-91
2022/07/23 09:38:56;;;;;;;1.37;1.30;;;28.40;70.70;;;;;;5053579;28;20507;-91
2022/07/23 09:41:24;;;;;;;1.47;1.07;;;28.20;70.30;;;;;;5060059;28;20536;-91
2022/07/23 09:43:57;;;;;;;3.13;1.73;;;27.70;74.10;;;;;;5063276;28;20480;-90
2022/07/23 09:46:25;;;;;;;2.13;2.03;;;27.70;77.50;;;;;;5059494;28;20456;-90
2022/07/23 09:48:52;;;;;;;1.70;1.60;;;27.40;75.10;;;;;;5061560;28;20482;-91
2022/07/23 09:51:27;;;;;;;1.10;1.00;;;27.10;75.70;;;;;;5064420;28;20535;-90
2022/07/23 09:53:56;;;;;;;1.57;1.47;;;27.40;74.20;;;;;;5063512;28;20558;-91
2022/07/23 09:56:23;;;;;;;2.13;2.03;;;27.20;77.00;;;;;;5074284;28;20458;-90
2022/07/23 09:58:52;;;;;;;1.53;1.43;;;27.40;75.90;;;;;;5085511;28;20493;-90
2022/07/23 10:01:21;;;;;;;2.00;1.60;;;27.30;74.10;;;;;;5094607;28;20456;-91
2022/07/23 10:03:48;;;;;;;1.77;1.67;;;27.70;74.20;;;;;;5073622;28;20961;-90
2022/07/23 10:06:15;;;;;;;2.53;2.33;;;27.90;72.20;;;;;;5065221;28;20633;-91
2022/07/23 10:08:45;;;;;;;1.23;1.03;;;27.60;72.60;;;;;;5063262;28;20455;-93
2022/07/23 10:11:14;;;;;;;1.37;1.00;;;28.20;74.70;;;;;;5063531;28;20550;-92
2022/07/23 10:13:52;;;;;;;1.30;1.20;;;28.50;73.50;;;;;;5057833;28;20555;-92
2022/07/23 10:16:19;;;;;;;1.60;1.50;;;28.60;70.40;;;;;;5056887;28;20480;-90
2022/07/23 10:18:47;;;;;;;1.70;1.60;;;29.00;70.40;;;;;;5052295;28;20543;-92
2022/07/23 10:21:21;;;;;;;1.60;1.50;;;28.60;69.00;;;;;;5059590;28;20462;-90
2022/07/23 10:24:10;;;;;;;2.80;1.73;;;28.50;71.20;;;;;;5059353;28;20483;-90
2022/07/23 10:26:46;;;;;;;4.70;2.03;;;28.60;73.90;;;;;;5065416;28;20448;-91
2022/07/23 10:29:25;;;;;;;1.23;1.20;;;28.40;72.70;;;;;;5059605;28;20455;-90
2022/07/23 10:31:59;;;;;;;2.00;1.90;;;28.50;71.70;;;;;;5056451;28;20530;-91
2022/07/23 10:34:36;;;;;;;2.10;1.93;;;28.30;73.30;;;;;;5056353;28;20451;-91
2022/07/23 10:37:14;;;;;;;2.40;2.20;;;29.10;72.30;;;;;;5054471;28;20514;-90
2022/07/23 10:39:41;;;;;;;1.40;1.30;;;29.50;67.90;;;;;;5053493;28;20524;-91
2022/07/23 10:42:14;;;;;;;1.87;1.70;;;29.40;68.70;;;;;;5064655;28;20455;-91
2022/07/23 10:44:43;;;;;;;2.60;1.50;;;29.30;72.20;;;;;;5064226;28;20475;-91
2022/07/23 10:49:52;;;;;;;3.90;2.40;;;29.60;66.30;;;;;;5040627;28;20459;-91
2022/07/23 10:52:24;;;;;;;2.17;1.57;;;30.20;63.80;;;;;;5063187;28;20486;-91
2022/07/23 10:54:54;;;;;;;2.50;1.57;;;30.60;62.80;;;;;;5063737;28;20558;-90
2022/07/23 10:57:23;;;;;;;1.50;1.40;;;30.50;69.60;;;;;;5067563;28;20464;-92
2022/07/23 11:00:13;;;;;;;1.97;1.87;;;30.70;62.70;;;;;;5062526;28;20459;-93
2022/07/23 11:02:41;;;;;;;3.27;1.80;;;30.70;65.10;;;;;;5061987;28;20479;-92
2022/07/23 11:05:10;;;;;;;3.13;2.00;;;30.80;63.90;;;;;;5059878;28;20498;-91
2022/07/23 11:07:58;;;;;;;1.97;1.30;;;30.70;60.90;;;;;;5060416;28;20473;-89
2022/07/23 11:10:35;;;;;;;2.80;1.50;;;30.50;61.60;;;;;;5052826;28;20474;-90
2022/07/23 11:13:28;;;;;;;1.00;0.90;;;30.30;63.20;;;;;;5059421;28;20517;-90
2022/07/23 11:16:35;;;;;;;1.10;1.03;;;30.00;62.80;;;;;;5059992;28;21079;-89
2022/07/23 11:19:09;;;;;;;1.30;1.20;;;29.90;62.00;;;;;;5065187;28;20440;-88
2022/07/23 11:21:52;;;;;;;2.17;1.30;;;29.80;63.10;;;;;;5063812;28;20460;-89
2022/07/23 11:24:21;;;;;;;1.87;1.37;;;29.80;64.50;;;;;;5068451;28;20563;-90
2022/07/23 11:26:51;;;;;;;1.33;1.23;;;30.20;61.80;;;;;;5064494;28;21031;-89
2022/07/23 11:29:42;;;;;;;1.63;1.50;;;30.90;58.00;;;;;;5061883;28;20464;-89
2022/07/23 11:32:33;;;;;;;1.57;1.00;;;31.00;57.60;;;;;;5057498;28;20456;-88
2022/07/23 11:35:00;;;;;;;1.73;1.13;;;30.70;58.90;;;;;;5059261;28;20457;-90
2022/07/23 11:37:36;;;;;;;1.30;1.20;;;30.70;57.70;;;;;;5056784;28;20478;-90
2022/07/23 11:40:08;;;;;;;1.30;1.03;;;30.40;58.90;;;;;;5059849;28;20573;-89
2022/07/23 11:42:37;;;;;;;1.90;1.77;;;29.90;58.40;;;;;;5059246;28;20494;-88
2022/07/23 11:45:08;;;;;;;1.20;1.10;;;29.90;59.00;;;;;;5061325;28;20789;-87
2022/07/23 11:47:36;;;;;;;1.53;1.43;;;30.20;59.60;;;;;;5059086;28;20448;-88
2022/07/23 11:50:06;;;;;;;1.50;1.40;;;30.20;58.20;;;;;;5055989;28;20582;-89
2022/07/23 11:52:34;;;;;;;1.30;1.20;;;30.70;59.30;;;;;;5075969;28;20488;-88
2022/07/23 11:55:04;;;;;;;1.13;1.03;;;30.90;58.80;;;;;;5087304;28;20463;-89
2022/07/23 11:57:33;;;;;;;0.83;0.83;;;30.90;59.10;;;;;;5084461;28;20464;-89
2022/07/23 12:00:11;;;;;;;2.50;2.30;;;30.80;61.10;;;;;;5065625;28;20461;-89
2022/07/23 12:02:38;;;;;;;3.10;1.57;;;31.10;60.00;;;;;;5056576;28;21236;-88
2022/07/23 12:05:06;;;;;;;1.50;1.40;;;31.30;59.10;;;;;;5056804;28;20545;-89
2022/07/23 12:07:35;;;;;;;1.13;1.03;;;30.90;59.60;;;;;;5058109;28;20510;-89
2022/07/23 12:10:05;;;;;;;2.93;1.47;;;30.80;61.70;;;;;;5060247;28;20453;-89
2022/07/23 12:12:39;;;;;;;1.97;1.87;;;30.90;61.60;;;;;;5057697;28;20501;-89
2022/07/23 12:15:07;;;;;;;1.93;1.60;;;31.00;60.90;;;;;;5068870;28;20452;-90
2022/07/23 12:17:38;;;;;;;2.27;1.30;;;30.80;60.40;;;;;;5063226;28;20483;-88
2022/07/23 12:20:08;;;;;;;1.63;1.50;;;30.50;63.40;;;;;;5070492;28;20443;-89
2022/07/23 12:22:38;;;;;;;1.40;1.30;;;30.10;64.70;;;;;;5069436;28;20848;-89
2022/07/23 12:25:08;;;;;;;1.40;1.30;;;30.60;69.20;;;;;;5064520;28;20532;-89
2022/07/23 12:27:35;;;;;;;1.10;1.00;;;30.80;65.80;;;;;;5066771;28;20446;-89
2022/07/23 12:30:22;;;;;;;2.17;1.97;;;30.60;69.70;;;;;;5062608;28;20974;-88
2022/07/23 12:32:52;;;;;;;1.53;1.43;;;30.70;64.00;;;;;;5066932;28;20451;-89
2022/07/23 12:35:20;;;;;;;2.27;1.47;;;30.90;64.50;;;;;;5067155;28;20478;-91
2022/07/23 12:37:48;;;;;;;1.37;1.13;;;30.40;64.00;;;;;;5063309;28;20465;-91
2022/07/23 12:40:27;;;;;;;2.17;1.40;;;30.30;61.60;;;;;;5058474;28;20974;-90
2022/07/23 12:42:56;;;;;;;1.77;1.20;;;30.30;60.50;;;;;;5066979;28;20475;-90
2022/07/23 12:45:24;;;;;;;2.23;2.03;;;30.50;63.30;;;;;;5067018;28;20452;-87
2022/07/23 12:48:03;;;;;;;1.60;1.50;;;30.70;65.80;;;;;;5054139;28;20476;-86
2022/07/23 12:50:54;;;;;;;2.20;2.00;;;30.50;62.70;;;;;;5072836;28;20487;-86
2022/07/23 12:53:23;;;;;;;1.77;1.60;;;30.40;61.20;;;;;;5068745;28;20487;-88
2022/07/23 12:55:52;;;;;;;1.70;1.60;;;30.60;60.90;;;;;;5081600;28;20463;-89
2022/07/23 12:58:21;;;;;;;2.10;1.90;;;30.90;61.20;;;;;;5069215;28;20452;-88
2022/07/23 13:01:00;;;;;;;1.07;1.07;;;30.70;60.60;;;;;;5060037;28;20503;-88